Time;durP1;ratioP1;P1;durP2;ratioP2;P2;SDS_P1;SDS_P2;PMS_P1;PMS_P2;Temp;Humidity;BMP_temperature;BMP_pressure;BME280_temperature;BME280_humidity;BME280_pressure;Samples;Min_cycle;Max_cycle;Signal;HPM_P1;HPM_P2
2022/09/15 10:47:30;;;;;;;2.00;1.90;;;21.20;99.90;;;;;;5088914;28;21149;-64
2022/09/15 10:50:10;;;;;;;2.67;1.60;;;21.30;99.90;;;;;;5089034;28;20529;-64
2022/09/15 10:52:48;;;;;;;2.53;2.00;;;21.30;99.90;;;;;;5088984;28;20442;-63
2022/09/15 10:55:27;;;;;;;1.87;1.60;;;21.40;99.90;;;;;;5089095;28;20533;-63
2022/09/15 10:58:19;;;;;;;2.03;1.83;;;21.50;99.90;;;;;;5068850;28;20792;-63
2022/09/15 11:00:53;;;;;;;4.03;2.10;;;21.50;99.90;;;;;;5069267;28;20526;-64
2022/09/15 11:03:51;;;;;;;1.90;1.80;;;21.60;99.90;;;;;;5068675;28;20439;-64
2022/09/15 11:06:24;;;;;;;1.40;1.30;;;21.60;99.90;;;;;;5068639;28;20490;-61
2022/09/15 11:09:02;;;;;;;2.57;1.33;;;21.60;99.90;;;;;;5080844;28;20541;-60
2022/09/15 11:11:39;;;;;;;2.30;2.07;;;21.70;99.90;;;;;;5088595;28;20474;-64
2022/09/15 11:14:22;;;;;;;3.53;1.53;;;21.70;99.90;;;;;;5088789;28;20438;-65
2022/09/15 11:17:01;;;;;;;2.77;1.40;;;21.70;99.90;;;;;;5079304;28;20447;-65
2022/09/15 11:19:45;;;;;;;1.33;1.33;;;21.80;99.90;;;;;;5068369;28;20481;-65
2022/09/15 11:22:17;;;;;;;2.30;2.03;;;21.80;99.90;;;;;;5068395;28;20992;-65
2022/09/15 11:24:49;;;;;;;1.20;1.20;;;21.70;99.90;;;;;;5068471;28;20471;-65
2022/09/15 11:27:21;;;;;;;1.80;1.70;;;21.70;99.90;;;;;;5068219;28;20475;-65
2022/09/15 11:30:04;;;;;;;1.33;1.23;;;21.70;99.90;;;;;;5068270;28;20447;-65
2022/09/15 11:32:38;;;;;;;1.97;1.73;;;21.70;99.90;;;;;;5067915;28;20530;-65
2022/09/15 11:35:32;;;;;;;1.57;1.50;;;21.70;99.90;;;;;;5068058;28;20542;-65
2022/09/15 11:38:10;;;;;;;1.40;1.30;;;21.70;99.90;;;;;;5068066;28;21035;-65
2022/09/15 11:40:43;;;;;;;1.73;1.57;;;21.70;99.90;;;;;;5067989;28;20530;-65
2022/09/15 11:43:18;;;;;;;1.00;1.00;;;21.70;99.90;;;;;;5067762;28;20440;-66
2022/09/15 11:45:49;;;;;;;1.53;1.43;;;21.70;99.90;;;;;;5067587;28;20578;-66
2022/09/15 11:48:19;;;;;;;1.47;1.37;;;21.70;99.90;;;;;;5068144;28;20538;-66
2022/09/15 11:50:52;;;;;;;1.30;1.30;;;21.70;99.90;;;;;;5067778;28;20439;-65
2022/09/15 11:53:27;;;;;;;1.53;1.53;;;21.70;99.90;;;;;;5067636;28;20447;-65
2022/09/15 11:56:05;;;;;;;1.50;1.40;;;21.70;99.90;;;;;;5067607;28;20536;-65
2022/09/15 11:58:37;;;;;;;1.27;1.20;;;21.70;99.90;;;;;;5055133;28;20523;-65
2022/09/15 12:01:13;;;;;;;1.47;1.37;;;21.70;99.90;;;;;;5054400;28;20450;-66
2022/09/15 12:03:47;;;;;;;1.30;1.20;;;21.80;99.90;;;;;;5054277;28;20448;-65
2022/09/15 12:06:18;;;;;;;1.20;1.20;;;21.80;99.90;;;;;;5054276;28;20842;-65
2022/09/15 12:08:53;;;;;;;1.00;1.00;;;21.80;99.90;;;;;;5054226;28;20475;-66
2022/09/15 12:11:23;;;;;;;1.47;1.37;;;21.80;99.90;;;;;;5054170;28;20526;-65
2022/09/15 12:13:52;;;;;;;1.57;1.47;;;21.80;99.90;;;;;;5054185;28;20527;-65
2022/09/15 12:16:20;;;;;;;1.30;1.30;;;21.80;99.90;;;;;;5053970;28;20464;-66
2022/09/15 12:18:51;;;;;;;1.90;1.80;;;21.80;99.90;;;;;;5054105;28;20467;-65
2022/09/15 12:21:28;;;;;;;1.27;1.17;;;21.80;99.90;;;;;;5053881;28;20539;-65
2022/09/15 12:24:00;;;;;;;1.00;1.00;;;21.80;99.90;;;;;;5053959;28;20446;-66
2022/09/15 12:26:27;;;;;;;1.17;1.03;;;21.80;99.90;;;;;;5053907;28;20571;-66
2022/09/15 12:28:59;;;;;;;1.20;1.20;;;21.80;99.90;;;;;;5053944;28;21027;-66
2022/09/15 12:31:32;;;;;;;1.10;1.10;;;21.80;99.90;;;;;;5053780;28;20444;-66
2022/09/15 12:34:02;;;;;;;1.27;1.17;;;21.80;99.90;;;;;;5053749;28;20534;-65
2022/09/15 12:36:43;;;;;;;2.77;1.70;;;21.80;99.90;;;;;;5053661;28;20459;-66
2022/09/15 12:39:30;;;;;;;1.70;1.30;;;21.80;99.90;;;;;;5053750;28;20448;-66
2022/09/15 12:42:07;;;;;;;2.20;1.37;;;21.80;99.90;;;;;;5053414;28;20440;-66
2022/09/15 12:44:36;;;;;;;1.40;1.30;;;21.80;99.90;;;;;;5053420;28;20443;-66
2022/09/15 12:47:07;;;;;;;1.50;1.40;;;21.80;99.90;;;;;;5053314;28;20491;-66
2022/09/15 12:49:36;;;;;;;1.10;1.10;;;21.80;99.90;;;;;;5053530;28;20444;-66
2022/09/15 12:52:06;;;;;;;1.20;1.20;;;21.80;99.90;;;;;;5053215;28;20440;-65
2022/09/15 12:54:35;;;;;;;0.97;0.97;;;21.80;99.90;;;;;;5053185;28;20540;-65
2022/09/15 12:57:03;;;;;;;1.23;1.23;;;21.80;99.90;;;;;;5053299;28;20523;-65
2022/09/15 12:59:30;;;;;;;1.00;1.00;;;21.80;99.90;;;;;;5053286;28;20881;-65
2022/09/15 13:01:57;;;;;;;1.20;1.20;;;21.80;99.90;;;;;;5053118;28;20518;-65
2022/09/15 13:04:43;;;;;;;1.00;1.00;;;21.80;99.90;;;;;;5053126;28;20440;-65
2022/09/15 13:07:55;;;;;;;1.27;1.20;;;21.80;99.90;;;;;;5053320;28;21005;-65
2022/09/15 13:10:38;;;;;;;2.07;0.80;;;21.80;99.90;;;;;;5032660;28;20448;-65
2022/09/15 13:13:30;;;;;;;0.90;0.90;;;21.80;99.90;;;;;;5053018;28;20502;-64
2022/09/15 13:15:57;;;;;;;1.00;1.00;;;21.80;99.90;;;;;;5043034;28;20476;-65
2022/09/15 13:18:26;;;;;;;0.87;0.87;;;21.80;99.90;;;;;;5053054;28;20447;-65
2022/09/15 13:21:00;;;;;;;1.40;0.90;;;21.80;99.90;;;;;;5052931;28;20444;-65
2022/09/15 13:23:34;;;;;;;1.37;1.27;;;21.80;99.90;;;;;;5052731;28;20444;-64
2022/09/15 13:26:03;;;;;;;1.53;1.10;;;21.80;99.90;;;;;;5052774;28;20579;-63
2022/09/15 13:28:31;;;;;;;1.10;1.10;;;21.80;99.90;;;;;;5052692;28;21020;-66
2022/09/15 13:31:09;;;;;;;1.07;1.00;;;21.80;99.90;;;;;;5052811;28;20466;-66
2022/09/15 13:34:12;;;;;;;1.00;1.00;;;21.80;99.90;;;;;;5052574;28;20539;-66
2022/09/15 13:36:51;;;;;;;1.10;1.10;;;21.80;99.90;;;;;;5045712;28;20465;-66
2022/09/15 13:39:49;;;;;;;0.80;0.80;;;21.80;99.90;;;;;;5052704;28;20477;-66
2022/09/15 13:42:46;;;;;;;0.90;0.90;;;21.80;99.90;;;;;;5052433;28;20479;-66
2022/09/15 13:45:37;;;;;;;0.90;0.90;;;21.80;99.90;;;;;;5052408;28;20476;-66
2022/09/15 13:48:22;;;;;;;0.80;0.80;;;21.80;99.90;;;;;;5052502;28;20483;-67
2022/09/15 13:50:55;;;;;;;0.83;0.83;;;21.80;99.90;;;;;;5052789;28;20439;-67
2022/09/15 13:53:41;;;;;;;0.90;0.90;;;21.80;99.90;;;;;;5052851;28;20531;-67
2022/09/15 13:56:19;;;;;;;0.87;0.87;;;21.80;99.90;;;;;;5053301;28;21123;-66
2022/09/15 13:58:47;;;;;;;0.90;0.90;;;21.80;99.90;;;;;;5053817;28;20531;-67
2022/09/15 14:01:15;;;;;;;0.90;0.90;;;21.80;99.90;;;;;;5052890;28;20865;-67
2022/09/15 14:03:46;;;;;;;1.20;1.10;;;21.80;99.90;;;;;;5052986;28;20452;-66
2022/09/15 14:06:16;;;;;;;1.90;1.33;;;21.80;99.90;;;;;;5052214;28;20575;-66
2022/09/15 14:08:47;;;;;;;0.60;0.60;;;21.80;99.90;;;;;;5052044;28;20490;-67
2022/09/15 14:11:22;;;;;;;1.70;1.10;;;21.80;99.90;;;;;;5052506;28;20510;-66
2022/09/15 14:13:50;;;;;;;0.70;0.70;;;21.80;99.90;;;;;;5063772;28;20882;-63
2022/09/15 14:16:29;;;;;;;3.07;1.70;;;21.80;99.90;;;;;;5053169;28;20897;-64
2022/09/15 14:18:58;;;;;;;1.10;1.00;;;21.80;99.90;;;;;;5058534;28;20450;-65
2022/09/15 14:21:27;;;;;;;0.90;0.90;;;21.90;99.90;;;;;;5067276;28;20455;-65
2022/09/15 14:23:56;;;;;;;1.67;1.10;;;21.90;99.90;;;;;;5070084;28;20445;-66
2022/09/15 14:26:26;;;;;;;0.83;0.80;;;21.90;99.90;;;;;;5071729;28;20489;-63
2022/09/15 14:28:59;;;;;;;1.40;0.87;;;21.90;99.90;;;;;;5071721;28;20446;-64
2022/09/15 14:31:28;;;;;;;1.20;1.10;;;21.90;99.90;;;;;;5055214;28;20443;-64
2022/09/15 14:33:55;;;;;;;1.20;1.10;;;21.90;99.90;;;;;;5051662;28;20451;-65
2022/09/15 14:36:26;;;;;;;1.33;1.23;;;22.00;99.90;;;;;;5051670;28;20773;-65
2022/09/15 14:39:16;;;;;;;3.30;1.23;;;21.90;99.90;;;;;;5051705;28;20843;-65
2022/09/15 14:41:46;;;;;;;0.93;0.93;;;21.90;99.90;;;;;;5069204;28;20500;-64
2022/09/15 14:44:23;;;;;;;1.47;1.37;;;21.90;99.90;;;;;;5071481;28;20526;-65
2022/09/15 14:46:51;;;;;;;1.37;1.27;;;21.90;99.90;;;;;;5071360;28;20488;-64
2022/09/15 14:49:18;;;;;;;1.20;1.20;;;21.90;99.90;;;;;;5071568;28;20453;-64
2022/09/15 14:51:47;;;;;;;1.00;1.00;;;21.90;99.90;;;;;;5053221;28;20506;-64
2022/09/15 14:54:18;;;;;;;2.13;1.13;;;21.90;99.90;;;;;;5051410;28;20447;-64
2022/09/15 14:56:48;;;;;;;0.93;0.93;;;21.90;99.90;;;;;;5051390;28;20921;-63
2022/09/15 14:59:19;;;;;;;1.70;1.10;;;21.90;99.90;;;;;;5051332;28;20468;-64
2022/09/15 15:01:54;;;;;;;0.83;0.83;;;21.90;99.90;;;;;;5068694;28;20904;-64
2022/09/15 15:04:26;;;;;;;0.80;0.80;;;21.90;99.90;;;;;;5071290;28;20443;-63
2022/09/15 15:07:00;;;;;;;1.13;1.03;;;21.90;99.90;;;;;;5071303;28;20578;-64
2022/09/15 15:09:32;;;;;;;0.70;0.70;;;21.90;99.90;;;;;;5071364;28;20449;-64
2022/09/15 15:12:05;;;;;;;1.23;1.13;;;21.90;99.90;;;;;;5069439;28;20889;-64
2022/09/15 15:14:31;;;;;;;0.90;0.90;;;21.90;99.90;;;;;;5071112;28;20447;-64
2022/09/15 15:17:00;;;;;;;1.17;1.07;;;21.90;99.90;;;;;;5071279;28;20442;-64
2022/09/15 15:19:32;;;;;;;1.53;0.80;;;21.90;99.90;;;;;;5071176;28;20450;-64
2022/09/15 15:22:17;;;;;;;3.53;1.20;;;21.90;99.90;;;;;;5051938;28;20531;-64
2022/09/15 15:24:45;;;;;;;1.00;0.83;;;21.90;99.90;;;;;;5051188;28;20487;-65
2022/09/15 15:27:41;;;;;;;0.83;0.83;;;21.90;99.90;;;;;;5051046;28;20480;-65
2022/09/15 15:30:47;;;;;;;0.93;0.93;;;21.90;99.90;;;;;;5043863;28;21012;-63
2022/09/15 15:33:24;;;;;;;1.17;1.17;;;21.90;99.90;;;;;;5011110;28;20488;-63
2022/09/15 15:36:03;;;;;;;0.80;0.70;;;21.90;99.90;;;;;;5068356;28;20753;-63
2022/09/15 15:38:34;;;;;;;2.20;1.50;;;21.90;99.90;;;;;;5070869;28;20805;-62
2022/09/15 15:41:03;;;;;;;1.00;1.00;;;22.00;99.90;;;;;;5060574;28;20450;-66
2022/09/15 15:43:33;;;;;;;0.90;0.90;;;22.00;99.90;;;;;;5054597;28;20439;-65
2022/09/15 15:46:02;;;;;;;1.03;0.90;;;22.00;99.90;;;;;;5054528;28;20475;-62
2022/09/15 15:48:31;;;;;;;1.60;1.03;;;22.00;99.90;;;;;;5057724;28;20471;-64
2022/09/15 15:50:58;;;;;;;1.20;1.00;;;22.00;99.90;;;;;;5074889;28;20443;-63
2022/09/15 15:53:27;;;;;;;2.03;1.10;;;22.10;99.90;;;;;;5074529;28;20445;-61
2022/09/15 15:55:54;;;;;;;2.80;1.47;;;22.00;99.90;;;;;;5074943;28;20463;-65
2022/09/15 15:58:22;;;;;;;6.87;1.40;;;22.10;99.90;;;;;;5074940;28;20439;-62
2022/09/15 16:00:52;;;;;;;1.50;1.27;;;22.10;99.90;;;;;;5055419;28;20531;-62
2022/09/15 16:03:20;;;;;;;2.20;1.30;;;22.00;99.90;;;;;;5054813;28;20535;-64
2022/09/15 16:05:50;;;;;;;3.23;1.43;;;22.10;99.90;;;;;;5054876;28;20880;-65
2022/09/15 16:08:24;;;;;;;3.20;1.60;;;22.10;99.90;;;;;;5054896;28;20483;-64
2022/09/15 16:10:53;;;;;;;4.63;2.23;;;22.10;99.90;;;;;;5074012;28;20447;-64
2022/09/15 16:13:21;;;;;;;1.43;1.10;;;22.10;99.90;;;;;;5074740;28;20924;-64
2022/09/15 16:15:50;;;;;;;4.80;1.43;;;22.10;99.90;;;;;;5074742;28;20467;-63
2022/09/15 16:18:17;;;;;;;3.80;1.93;;;22.10;99.90;;;;;;5074602;28;20452;-63
2022/09/15 16:20:43;;;;;;;1.30;1.03;;;22.10;99.90;;;;;;5054891;28;20898;-62
2022/09/15 16:23:14;;;;;;;1.50;1.23;;;22.10;99.90;;;;;;5054573;28;20812;-65
2022/09/15 16:25:48;;;;;;;3.30;1.50;;;22.10;99.90;;;;;;5054048;28;20795;-66
2022/09/15 16:28:14;;;;;;;1.53;0.97;;;22.10;99.90;;;;;;5066534;28;20517;-66
2022/09/15 16:30:41;;;;;;;1.57;1.13;;;22.10;99.90;;;;;;5074282;28;20485;-65
2022/09/15 16:33:14;;;;;;;1.40;1.30;;;22.10;99.90;;;;;;5074025;28;20546;-65
2022/09/15 16:35:48;;;;;;;2.03;1.20;;;22.20;99.90;;;;;;5068929;28;21008;-66
2022/09/15 16:38:15;;;;;;;3.13;1.37;;;22.10;99.90;;;;;;5054649;28;20447;-66
2022/09/15 16:40:42;;;;;;;0.87;0.87;;;22.10;99.90;;;;;;5054489;28;20451;-65
2022/09/15 16:43:12;;;;;;;1.87;1.20;;;22.10;99.90;;;;;;5054392;28;20886;-68
2022/09/15 16:45:39;;;;;;;1.07;1.07;;;22.10;99.90;;;;;;5057690;28;20471;-65
2022/09/15 16:48:06;;;;;;;1.30;1.13;;;22.10;99.90;;;;;;5057008;28;20854;-64
2022/09/15 16:50:35;;;;;;;1.93;1.10;;;22.10;99.90;;;;;;5053907;28;20440;-65
2022/09/15 16:53:01;;;;;;;1.23;1.13;;;22.10;99.90;;;;;;5053802;28;20451;-64
2022/09/15 16:55:38;;;;;;;1.83;1.00;;;22.10;99.90;;;;;;5055336;28;20913;-66
2022/09/15 16:58:06;;;;;;;6.90;1.87;;;22.10;99.90;;;;;;5072024;28;20486;-66
2022/09/15 17:00:36;;;;;;;3.47;1.47;;;22.10;99.90;;;;;;5107454;22;20575;-68
2022/09/15 17:03:04;;;;;;;1.70;1.37;;;22.10;99.90;;;;;;5061664;28;20520;-68
2022/09/15 17:05:35;;;;;;;1.53;1.10;;;22.10;99.90;;;;;;5052857;28;20454;-67
2022/09/15 17:08:03;;;;;;;3.53;1.10;;;22.10;99.90;;;;;;5053184;28;20480;-67
2022/09/15 17:10:30;;;;;;;1.33;1.00;;;22.20;99.90;;;;;;5053051;28;20464;-65
2022/09/15 17:12:57;;;;;;;3.70;2.30;;;22.10;99.90;;;;;;5052811;28;20462;-64
2022/09/15 17:15:27;;;;;;;2.40;1.47;;;22.10;99.90;;;;;;5052918;28;20926;-65
2022/09/15 17:17:56;;;;;;;1.73;1.17;;;22.20;99.90;;;;;;5053547;28;20459;-67
2022/09/15 17:20:24;;;;;;;0.80;0.80;;;22.20;99.90;;;;;;5053989;28;20475;-67
2022/09/15 17:22:54;;;;;;;1.87;0.90;;;22.20;99.90;;;;;;5053485;28;20502;-66
2022/09/15 17:25:24;;;;;;;1.43;1.33;;;22.20;99.90;;;;;;5052468;28;20472;-65
2022/09/15 17:27:52;;;;;;;1.03;1.03;;;22.20;99.90;;;;;;5052901;28;20506;-63
2022/09/15 17:30:21;;;;;;;1.37;1.00;;;22.20;99.90;;;;;;5053168;28;20496;-64
2022/09/15 17:32:48;;;;;;;2.80;1.30;;;22.20;99.90;;;;;;5052480;28;20444;-64
2022/09/15 17:35:18;;;;;;;2.53;1.40;;;22.20;99.90;;;;;;5052763;28;20907;-64
2022/09/15 17:37:45;;;;;;;2.57;1.10;;;22.30;99.90;;;;;;5052282;28;20968;-68
2022/09/15 17:40:15;;;;;;;4.27;1.20;;;22.30;99.90;;;;;;5052510;28;20526;-66
2022/09/15 17:42:43;;;;;;;1.90;1.53;;;22.20;99.90;;;;;;5052340;28;21031;-63
2022/09/15 17:45:16;;;;;;;2.50;1.23;;;22.20;99.90;;;;;;5052227;28;20535;-59
2022/09/15 17:47:43;;;;;;;2.63;1.03;;;22.20;99.90;;;;;;5052808;28;20908;-63
2022/09/15 17:50:11;;;;;;;2.50;1.13;;;22.20;99.90;;;;;;5052850;28;20547;-61
2022/09/15 17:52:38;;;;;;;1.77;1.23;;;22.30;99.90;;;;;;5052047;28;20445;-62
2022/09/15 17:55:14;;;;;;;3.43;1.47;;;22.30;99.90;;;;;;5052120;28;20498;-62
2022/09/15 17:57:41;;;;;;;2.20;0.93;;;22.30;99.90;;;;;;5052414;28;20443;-63
2022/09/15 18:00:10;;;;;;;4.70;2.73;;;22.30;99.90;;;;;;5052639;28;20895;-68
2022/09/15 18:02:38;;;;;;;1.57;1.47;;;22.30;99.90;;;;;;5052409;28;20468;-68
2022/09/15 18:05:06;;;;;;;1.50;1.13;;;22.30;99.90;;;;;;5054125;28;20957;-67
2022/09/15 18:07:33;;;;;;;2.30;1.87;;;22.30;99.90;;;;;;5053434;28;20506;-67
2022/09/15 18:10:00;;;;;;;1.70;1.23;;;22.30;99.90;;;;;;5053302;28;20904;-65
2022/09/15 18:12:29;;;;;;;5.43;2.10;;;22.30;99.90;;;;;;5051961;28;20953;-65
2022/09/15 18:14:56;;;;;;;1.30;1.20;;;22.20;99.90;;;;;;5052718;28;21020;-67
2022/09/15 18:17:23;;;;;;;4.07;1.30;;;22.30;99.90;;;;;;5052429;28;20472;-65
2022/09/15 18:19:50;;;;;;;1.80;1.10;;;22.30;99.90;;;;;;5052089;28;20492;-62
2022/09/15 18:22:17;;;;;;;1.47;1.30;;;22.30;99.90;;;;;;5051692;28;20468;-63
2022/09/15 18:24:45;;;;;;;1.40;1.30;;;22.30;99.90;;;;;;5051906;28;20531;-62
2022/09/15 18:27:12;;;;;;;1.00;1.00;;;22.30;99.90;;;;;;5051805;28;20444;-64
2022/09/15 18:29:40;;;;;;;3.40;1.10;;;22.30;99.90;;;;;;5051893;28;20474;-65
2022/09/15 18:32:07;;;;;;;2.90;1.50;;;22.30;99.90;;;;;;5050657;28;20448;-70
2022/09/15 18:34:34;;;;;;;4.00;1.37;;;22.30;99.90;;;;;;5051222;28;20543;-68
2022/09/15 18:37:01;;;;;;;0.87;0.87;;;22.20;99.90;;;;;;5052130;28;20599;-68
2022/09/15 18:39:28;;;;;;;1.73;1.13;;;22.30;99.90;;;;;;5052225;28;20499;-67
2022/09/15 18:41:55;;;;;;;1.37;1.27;;;22.20;99.90;;;;;;5051586;28;20452;-67
2022/09/15 18:44:22;;;;;;;1.50;1.40;;;22.30;99.90;;;;;;5051970;28;20961;-65
2022/09/15 18:46:50;;;;;;;2.93;1.27;;;22.20;99.90;;;;;;5051935;28;20478;-68
2022/09/15 18:49:17;;;;;;;3.90;1.07;;;22.30;99.90;;;;;;5052114;28;20567;-67
2022/09/15 18:51:45;;;;;;;4.53;1.27;;;22.20;99.90;;;;;;5052266;28;20480;-66
2022/09/15 18:54:12;;;;;;;3.07;1.20;;;22.30;99.90;;;;;;5051757;28;20452;-66
2022/09/15 18:56:39;;;;;;;1.33;1.27;;;22.30;99.90;;;;;;5052880;28;20440;-67
2022/09/15 18:59:06;;;;;;;0.90;0.90;;;22.30;99.90;;;;;;5053149;28;20470;-66
2022/09/15 19:01:33;;;;;;;3.50;1.37;;;22.30;99.90;;;;;;5052755;28;20539;-66
2022/09/15 19:04:02;;;;;;;1.53;1.00;;;22.30;99.90;;;;;;5053172;28;20855;-67
2022/09/15 19:06:29;;;;;;;0.90;0.90;;;22.30;99.90;;;;;;5052776;28;20471;-67
2022/09/15 19:08:57;;;;;;;1.50;1.13;;;22.30;99.90;;;;;;5056425;28;20483;-66
2022/09/15 19:11:24;;;;;;;4.73;1.00;;;22.30;99.90;;;;;;5056277;28;20452;-67
2022/09/15 19:13:52;;;;;;;0.90;0.90;;;22.30;99.90;;;;;;5056867;28;20530;-66
2022/09/15 19:16:19;;;;;;;1.37;1.20;;;22.30;99.90;;;;;;5056626;28;20475;-67
2022/09/15 19:18:49;;;;;;;1.20;1.10;;;22.30;99.90;;;;;;5056198;28;20440;-68
2022/09/15 19:21:17;;;;;;;1.13;1.10;;;22.30;99.90;;;;;;5056674;28;20444;-66
2022/09/15 19:23:44;;;;;;;1.07;1.03;;;22.30;99.90;;;;;;5056458;28;20448;-67
2022/09/15 19:26:15;;;;;;;1.27;1.17;;;22.30;99.90;;;;;;5056936;28;20444;-65
2022/09/15 19:28:43;;;;;;;1.57;1.40;;;22.30;99.90;;;;;;5056177;28;20484;-66
2022/09/15 19:31:11;;;;;;;1.00;0.83;;;22.30;99.90;;;;;;5056116;28;20480;-67
2022/09/15 19:33:38;;;;;;;1.33;1.23;;;22.30;99.90;;;;;;5056393;28;20444;-67
2022/09/15 19:36:07;;;;;;;5.77;3.53;;;22.30;99.90;;;;;;5056397;28;20452;-66
2022/09/15 19:38:36;;;;;;;1.90;1.10;;;22.30;99.90;;;;;;5056171;28;20444;-66
2022/09/15 19:41:05;;;;;;;2.80;1.08;;;22.30;99.90;;;;;;5054572;28;20538;-66
2022/09/15 19:43:32;;;;;;;2.93;1.60;;;22.30;99.90;;;;;;5055455;28;20293;-65
2022/09/15 19:45:59;;;;;;;1.53;1.43;;;22.40;99.90;;;;;;5055625;28;20468;-64
2022/09/15 19:48:26;;;;;;;1.20;1.10;;;22.40;99.90;;;;;;5055275;28;20881;-65
2022/09/15 19:50:53;;;;;;;1.00;1.00;;;22.40;99.90;;;;;;5055159;28;20460;-64
2022/09/15 19:53:19;;;;;;;1.20;1.20;;;22.40;99.90;;;;;;5055602;28;20462;-65
2022/09/15 19:55:51;;;;;;;0.70;0.70;;;22.30;99.90;;;;;;5055649;28;20539;-66
2022/09/15 19:58:19;;;;;;;1.30;1.30;;;22.30;99.90;;;;;;5055700;28;20526;-65
2022/09/15 20:00:52;;;;;;;1.43;0.90;;;22.30;99.90;;;;;;5055062;28;20480;-66
2022/09/15 20:03:19;;;;;;;1.17;0.80;;;22.30;99.90;;;;;;5054860;28;20933;-67
2022/09/15 20:05:50;;;;;;;1.30;1.20;;;22.30;99.90;;;;;;5055339;28;20487;-66
2022/09/15 20:08:16;;;;;;;1.00;1.00;;;22.30;99.90;;;;;;5055045;28;20483;-65
2022/09/15 20:10:43;;;;;;;5.37;1.40;;;22.30;99.90;;;;;;5055050;28;20842;-65
2022/09/15 20:13:12;;;;;;;1.20;1.10;;;22.20;99.90;;;;;;5054752;28;20450;-65
2022/09/15 20:15:39;;;;;;;0.70;0.70;;;22.20;99.90;;;;;;5054872;28;20495;-65
2022/09/15 20:18:07;;;;;;;1.00;1.00;;;22.30;99.90;;;;;;5054673;28;20472;-64
2022/09/15 20:20:38;;;;;;;0.90;0.90;;;22.20;99.90;;;;;;5054764;28;20465;-65
2022/09/15 20:23:05;;;;;;;0.90;0.90;;;22.20;99.90;;;;;;5054797;28;20454;-66
2022/09/15 20:25:32;;;;;;;1.23;1.13;;;22.30;99.90;;;;;;5055772;28;20535;-68
2022/09/15 20:27:59;;;;;;;2.73;1.40;;;22.30;99.90;;;;;;5056128;28;20880;-66
2022/09/15 20:30:27;;;;;;;0.90;0.90;;;22.20;99.90;;;;;;5055008;28;20491;-66
2022/09/15 20:32:54;;;;;;;1.00;1.00;;;22.30;99.90;;;;;;5055282;28;20528;-67
2022/09/15 20:35:21;;;;;;;1.10;1.10;;;22.20;99.90;;;;;;5055506;28;20475;-68
2022/09/15 20:37:48;;;;;;;1.10;1.00;;;22.30;99.90;;;;;;5054950;28;20527;-65
2022/09/15 20:40:16;;;;;;;1.70;0.80;;;22.30;99.90;;;;;;5054845;28;20456;-66
2022/09/15 20:42:43;;;;;;;0.90;0.70;;;22.30;99.90;;;;;;5054913;28;20448;-66
2022/09/15 20:45:10;;;;;;;1.13;0.73;;;22.30;99.90;;;;;;5055183;28;20450;-66
2022/09/15 20:47:39;;;;;;;0.97;0.90;;;22.30;99.90;;;;;;5054674;28;20535;-66
2022/09/15 20:50:07;;;;;;;2.00;0.83;;;22.30;99.90;;;;;;5055611;28;20538;-67
2022/09/15 20:52:34;;;;;;;1.30;1.30;;;22.30;99.90;;;;;;5054723;28;20452;-65
2022/09/15 20:55:01;;;;;;;1.33;1.23;;;22.30;99.90;;;;;;5053962;28;21017;-68
2022/09/15 20:57:28;;;;;;;1.27;1.27;;;22.30;99.90;;;;;;5053330;28;20555;-69
2022/09/15 20:59:54;;;;;;;1.10;1.10;;;22.30;99.90;;;;;;5052896;28;20643;-68
2022/09/15 21:02:21;;;;;;;1.27;1.27;;;22.30;99.90;;;;;;5053099;28;20539;-69
2022/09/15 21:04:49;;;;;;;0.80;0.80;;;22.20;99.90;;;;;;5053323;28;20555;-68
2022/09/15 21:07:16;;;;;;;1.07;1.07;;;22.20;99.90;;;;;;5053139;28;20531;-68
2022/09/15 21:09:44;;;;;;;1.77;0.90;;;22.20;99.90;;;;;;5052854;28;20484;-69
2022/09/15 21:12:11;;;;;;;0.77;0.73;;;22.20;99.90;;;;;;5053002;28;20539;-68
2022/09/15 21:14:37;;;;;;;1.10;1.00;;;22.20;99.90;;;;;;5052751;28;20459;-68
2022/09/15 21:17:04;;;;;;;1.67;1.57;;;22.20;99.90;;;;;;5053046;28;20535;-68
2022/09/15 21:19:31;;;;;;;0.90;0.90;;;22.20;99.90;;;;;;5052596;28;20467;-68
2022/09/15 21:22:00;;;;;;;1.30;0.80;;;22.20;99.90;;;;;;5052479;28;20444;-69
2022/09/15 21:24:27;;;;;;;0.80;0.80;;;22.10;99.90;;;;;;5052836;28;20453;-68
2022/09/15 21:29:38;;;;;;;0.90;0.90;;;22.10;99.90;;;;;;5051536;28;20479;-69
2022/09/15 21:32:05;;;;;;;1.00;1.00;;;22.10;99.90;;;;;;5052193;28;20454;-68
2022/09/15 21:34:32;;;;;;;2.77;0.80;;;22.10;99.90;;;;;;5052513;28;20455;-69
2022/09/15 21:37:00;;;;;;;1.60;1.50;;;22.10;99.90;;;;;;5052490;28;20878;-68
2022/09/15 21:39:27;;;;;;;0.73;0.73;;;22.10;99.90;;;;;;5052287;28;20496;-68
2022/09/15 21:41:54;;;;;;;0.90;0.90;;;22.10;99.90;;;;;;5052359;28;20749;-69
2022/09/15 21:44:21;;;;;;;1.33;0.80;;;22.10;99.90;;;;;;5052505;28;20490;-69
2022/09/15 21:46:47;;;;;;;1.77;0.80;;;22.00;99.90;;;;;;5052467;28;20446;-68
2022/09/15 21:49:16;;;;;;;0.80;0.80;;;22.10;99.90;;;;;;5052005;28;20484;-68
2022/09/15 21:51:43;;;;;;;0.93;0.80;;;22.10;99.90;;;;;;5052156;28;20447;-68
2022/09/15 21:54:12;;;;;;;0.90;0.90;;;22.00;99.90;;;;;;5052238;28;20452;-68
2022/09/15 21:56:39;;;;;;;1.00;1.00;;;22.10;99.90;;;;;;5052206;28;20448;-68
2022/09/15 21:59:07;;;;;;;0.77;0.77;;;22.00;99.90;;;;;;5051787;28;21074;-69
2022/09/15 22:01:35;;;;;;;0.83;0.70;;;22.10;99.90;;;;;;5051997;28;20863;-69
2022/09/15 22:04:03;;;;;;;1.20;1.10;;;22.00;99.90;;;;;;5052080;28;20539;-69
2022/09/15 22:06:32;;;;;;;0.90;0.90;;;22.00;99.90;;;;;;5051964;28;20452;-69
2022/09/15 22:08:59;;;;;;;1.00;1.00;;;22.00;99.90;;;;;;5051582;28;20514;-68
2022/09/15 22:11:28;;;;;;;1.33;1.10;;;22.00;99.90;;;;;;5051818;28;20448;-68
2022/09/15 22:13:55;;;;;;;0.77;0.77;;;22.00;99.90;;;;;;5051922;28;20444;-68
2022/09/15 22:16:24;;;;;;;0.80;0.80;;;22.00;99.90;;;;;;5052177;28;20448;-68
2022/09/15 22:18:51;;;;;;;1.50;0.90;;;22.00;99.90;;;;;;5051190;28;20494;-69
2022/09/15 22:21:20;;;;;;;0.90;0.90;;;22.00;99.90;;;;;;5051784;28;20543;-68
2022/09/15 22:23:48;;;;;;;1.13;1.03;;;22.00;99.90;;;;;;5051812;28;20528;-69
2022/09/15 22:26:17;;;;;;;2.50;1.00;;;22.00;99.90;;;;;;5051803;28;20450;-68
2022/09/15 22:28:46;;;;;;;1.10;0.70;;;22.00;99.90;;;;;;5051391;28;20505;-69
2022/09/15 22:31:14;;;;;;;1.00;1.00;;;22.00;99.90;;;;;;5051546;28;20444;-69
2022/09/15 22:33:41;;;;;;;0.70;0.70;;;21.90;99.90;;;;;;5051667;28;20820;-69
2022/09/15 22:36:10;;;;;;;0.73;0.73;;;21.90;99.90;;;;;;5051769;28;20885;-68
2022/09/15 22:38:37;;;;;;;0.60;0.60;;;21.90;99.90;;;;;;5051119;28;20444;-69
2022/09/15 22:41:05;;;;;;;0.73;0.70;;;21.90;99.90;;;;;;5051156;28;20845;-69
2022/09/15 22:43:32;;;;;;;0.60;0.60;;;21.90;99.90;;;;;;5051277;28;20533;-69
2022/09/15 22:46:00;;;;;;;0.83;0.80;;;21.90;99.90;;;;;;5051580;28;20476;-69
2022/09/15 22:48:27;;;;;;;0.60;0.60;;;21.90;99.90;;;;;;5051351;28;21008;-69
2022/09/15 22:50:54;;;;;;;2.20;0.90;;;21.90;99.90;;;;;;5051305;28;20488;-69
2022/09/15 22:53:22;;;;;;;1.03;0.77;;;21.90;99.90;;;;;;5051227;28;20443;-69
2022/09/15 22:55:49;;;;;;;0.80;0.80;;;21.90;99.90;;;;;;5051524;28;20484;-68
2022/09/15 22:58:16;;;;;;;0.77;0.77;;;21.90;99.90;;;;;;5051227;28;20444;-69
2022/09/15 23:00:43;;;;;;;1.07;1.00;;;21.90;99.90;;;;;;5051840;28;20483;-68
2022/09/15 23:03:11;;;;;;;0.90;0.90;;;21.90;99.90;;;;;;5051164;28;20444;-69
2022/09/15 23:05:38;;;;;;;1.43;1.00;;;21.90;99.90;;;;;;5051252;28;20444;-69
2022/09/15 23:08:05;;;;;;;1.07;1.07;;;21.90;99.90;;;;;;5051093;28;20480;-69
2022/09/15 23:10:32;;;;;;;1.17;0.77;;;21.90;99.90;;;;;;5051372;28;20484;-69
2022/09/15 23:12:59;;;;;;;0.93;0.93;;;21.80;99.90;;;;;;5051219;28;20448;-69
2022/09/15 23:15:26;;;;;;;0.70;0.70;;;21.80;99.90;;;;;;5051151;28;20783;-69
2022/09/15 23:17:53;;;;;;;0.70;0.70;;;21.80;99.90;;;;;;5051138;28;20505;-68
2022/09/15 23:20:21;;;;;;;0.73;0.73;;;21.80;99.90;;;;;;5051315;28;20825;-69
2022/09/15 23:22:48;;;;;;;0.53;0.53;;;21.80;99.90;;;;;;5051085;28;20483;-69
2022/09/15 23:25:16;;;;;;;1.43;0.70;;;21.80;99.90;;;;;;5051127;28;20448;-69
2022/09/15 23:27:42;;;;;;;0.70;0.70;;;21.80;99.90;;;;;;5051315;28;20840;-69
2022/09/15 23:30:11;;;;;;;0.63;0.63;;;21.80;99.90;;;;;;5051169;28;20516;-68
2022/09/15 23:32:37;;;;;;;0.80;0.80;;;21.80;99.90;;;;;;5050984;28;20535;-68
2022/09/15 23:35:05;;;;;;;0.70;0.63;;;21.80;99.90;;;;;;5050944;28;20999;-69
2022/09/15 23:37:33;;;;;;;0.70;0.70;;;21.80;99.90;;;;;;5051346;28;20478;-68
2022/09/15 23:40:00;;;;;;;0.60;0.60;;;21.80;99.90;;;;;;5051005;28;20460;-68
2022/09/15 23:42:27;;;;;;;0.60;0.60;;;21.80;99.90;;;;;;5050943;28;20450;-69
2022/09/15 23:44:54;;;;;;;0.67;0.67;;;21.80;99.90;;;;;;5050983;28;20448;-68
2022/09/15 23:47:20;;;;;;;0.90;0.90;;;21.80;99.90;;;;;;5051040;28;20534;-69
2022/09/15 23:49:47;;;;;;;0.90;0.90;;;21.80;99.90;;;;;;5051134;28;20509;-69
2022/09/15 23:52:14;;;;;;;0.80;0.80;;;21.80;99.90;;;;;;5050909;28;20444;-69
2022/09/15 23:54:42;;;;;;;0.83;0.77;;;21.70;99.90;;;;;;5054020;28;20479;-69